sensor_id;sensor_type;location;lat;lon;timestamp;temperature;humidity
9987;DHT22;5033;46.310;11.214;2023-02-01T00:01:25;3.60;84.20
9987;DHT22;5033;46.310;11.214;2023-02-01T00:03:52;3.60;84.20
9987;DHT22;5033;46.310;11.214;2023-02-01T00:06:19;3.50;84.40
9987;DHT22;5033;46.310;11.214;2023-02-01T00:08:46;3.60;84.60
9987;DHT22;5033;46.310;11.214;2023-02-01T00:11:13;3.60;84.20
9987;DHT22;5033;46.310;11.214;2023-02-01T00:13:41;3.60;84.10
9987;DHT22;5033;46.310;11.214;2023-02-01T00:16:11;3.60;84.10
9987;DHT22;5033;46.310;11.214;2023-02-01T00:18:40;3.60;84.90
9987;DHT22;5033;46.310;11.214;2023-02-01T00:21:07;3.50;85.10
9987;DHT22;5033;46.310;11.214;2023-02-01T00:23:35;3.60;85.30
9987;DHT22;5033;46.310;11.214;2023-02-01T00:26:03;3.50;84.60
9987;DHT22;5033;46.310;11.214;2023-02-01T00:28:31;3.50;84.40
9987;DHT22;5033;46.310;11.214;2023-02-01T00:31:01;3.50;84.80
9987;DHT22;5033;46.310;11.214;2023-02-01T00:33:30;3.40;85.30
9987;DHT22;5033;46.310;11.214;2023-02-01T00:35:58;3.30;85.40
9987;DHT22;5033;46.310;11.214;2023-02-01T00:38:25;3.30;85.60
9987;DHT22;5033;46.310;11.214;2023-02-01T00:40:52;3.30;85.70
9987;DHT22;5033;46.310;11.214;2023-02-01T00:43:20;3.30;86.10
9987;DHT22;5033;46.310;11.214;2023-02-01T00:45:47;3.30;86.60
9987;DHT22;5033;46.310;11.214;2023-02-01T00:48:14;3.20;86.10
9987;DHT22;5033;46.310;11.214;2023-02-01T00:50:43;3.20;86.40
9987;DHT22;5033;46.310;11.214;2023-02-01T00:53:11;3.20;86.80
9987;DHT22;5033;46.310;11.214;2023-02-01T00:55:39;3.20;86.70
9987;DHT22;5033;46.310;11.214;2023-02-01T00:58:06;3.20;86.90
9987;DHT22;5033;46.310;11.214;2023-02-01T01:00:35;3.20;86.80
9987;DHT22;5033;46.310;11.214;2023-02-01T01:03:02;3.20;87.00
9987;DHT22;5033;46.310;11.214;2023-02-01T01:05:44;3.20;87.10
9987;DHT22;5033;46.310;11.214;2023-02-01T01:08:11;3.20;87.30
9987;DHT22;5033;46.310;11.214;2023-02-01T01:10:38;3.20;88.50
9987;DHT22;5033;46.310;11.214;2023-02-01T01:13:06;3.20;87.90
9987;DHT22;5033;46.310;11.214;2023-02-01T01:15:36;3.20;87.90
9987;DHT22;5033;46.310;11.214;2023-02-01T01:18:03;3.20;87.90
9987;DHT22;5033;46.310;11.214;2023-02-01T01:20:30;3.30;87.60
9987;DHT22;5033;46.310;11.214;2023-02-01T01:22:59;3.30;86.70
9987;DHT22;5033;46.310;11.214;2023-02-01T01:25:26;3.30;86.20
9987;DHT22;5033;46.310;11.214;2023-02-01T01:27:53;3.30;86.60
9987;DHT22;5033;46.310;11.214;2023-02-01T01:30:20;3.30;86.50
9987;DHT22;5033;46.310;11.214;2023-02-01T01:32:47;3.30;87.30
9987;DHT22;5033;46.310;11.214;2023-02-01T01:35:15;3.30;87.70
9987;DHT22;5033;46.310;11.214;2023-02-01T01:37:42;3.30;87.20
9987;DHT22;5033;46.310;11.214;2023-02-01T01:40:12;3.20;87.30
9987;DHT22;5033;46.310;11.214;2023-02-01T01:42:40;3.20;87.70
9987;DHT22;5033;46.310;11.214;2023-02-01T01:45:19;3.10;88.10
9987;DHT22;5033;46.310;11.214;2023-02-01T01:47:50;3.00;88.90
9987;DHT22;5033;46.310;11.214;2023-02-01T01:50:20;3.00;89.50
9987;DHT22;5033;46.310;11.214;2023-02-01T01:52:49;2.90;89.40
9987;DHT22;5033;46.310;11.214;2023-02-01T01:55:20;2.80;90.00
9987;DHT22;5033;46.310;11.214;2023-02-01T01:57:51;2.80;90.20
9987;DHT22;5033;46.310;11.214;2023-02-01T02:00:21;2.80;90.20
9987;DHT22;5033;46.310;11.214;2023-02-01T02:02:53;2.80;90.20
9987;DHT22;5033;46.310;11.214;2023-02-01T02:05:21;2.80;89.60
9987;DHT22;5033;46.310;11.214;2023-02-01T02:07:51;2.90;89.40
9987;DHT22;5033;46.310;11.214;2023-02-01T02:10:21;2.90;89.60
9987;DHT22;5033;46.310;11.214;2023-02-01T02:13:08;2.90;89.20
9987;DHT22;5033;46.310;11.214;2023-02-01T02:15:40;2.90;90.30
9987;DHT22;5033;46.310;11.214;2023-02-01T02:18:15;2.80;90.10
9987;DHT22;5033;46.310;11.214;2023-02-01T02:21:14;2.70;90.00
9987;DHT22;5033;46.310;11.214;2023-02-01T02:27:09;2.70;89.40
9987;DHT22;5033;46.310;11.214;2023-02-01T02:30:14;2.70;89.80
9987;DHT22;5033;46.310;11.214;2023-02-01T02:33:17;2.60;90.30
9987;DHT22;5033;46.310;11.214;2023-02-01T02:35:50;2.60;91.00
9987;DHT22;5033;46.310;11.214;2023-02-01T02:38:26;2.60;91.10
9987;DHT22;5033;46.310;11.214;2023-02-01T02:41:05;2.50;91.10
9987;DHT22;5033;46.310;11.214;2023-02-01T02:43:37;2.50;91.00
9987;DHT22;5033;46.310;11.214;2023-02-01T02:46:30;2.50;91.00
9987;DHT22;5033;46.310;11.214;2023-02-01T02:49:22;2.50;91.00
9987;DHT22;5033;46.310;11.214;2023-02-01T02:51:53;2.50;90.80
9987;DHT22;5033;46.310;11.214;2023-02-01T02:54:43;2.60;90.70
9987;DHT22;5033;46.310;11.214;2023-02-01T02:57:19;2.60;90.90
9987;DHT22;5033;46.310;11.214;2023-02-01T03:00:08;2.60;91.00
9987;DHT22;5033;46.310;11.214;2023-02-01T03:02:53;2.60;91.10
9987;DHT22;5033;46.310;11.214;2023-02-01T03:05:41;2.60;91.10
9987;DHT22;5033;46.310;11.214;2023-02-01T03:08:11;2.60;90.70
9987;DHT22;5033;46.310;11.214;2023-02-01T03:10:47;2.60;91.00
9987;DHT22;5033;46.310;11.214;2023-02-01T03:13:20;2.60;91.30
9987;DHT22;5033;46.310;11.214;2023-02-01T03:15:54;2.60;91.30
9987;DHT22;5033;46.310;11.214;2023-02-01T03:18:28;2.60;91.30
9987;DHT22;5033;46.310;11.214;2023-02-01T03:21:00;2.60;91.10
9987;DHT22;5033;46.310;11.214;2023-02-01T03:23:32;2.60;91.00
9987;DHT22;5033;46.310;11.214;2023-02-01T03:26:01;2.60;91.10
9987;DHT22;5033;46.310;11.214;2023-02-01T03:28:31;2.60;91.40
9987;DHT22;5033;46.310;11.214;2023-02-01T03:31:00;2.60;91.50
9987;DHT22;5033;46.310;11.214;2023-02-01T03:33:28;2.60;91.50
9987;DHT22;5033;46.310;11.214;2023-02-01T03:36:17;2.60;92.00
9987;DHT22;5033;46.310;11.214;2023-02-01T03:38:51;2.60;91.50
9987;DHT22;5033;46.310;11.214;2023-02-01T03:41:26;2.50;91.50
9987;DHT22;5033;46.310;11.214;2023-02-01T03:43:58;2.50;91.50
9987;DHT22;5033;46.310;11.214;2023-02-01T03:46:31;2.50;91.70
9987;DHT22;5033;46.310;11.214;2023-02-01T03:49:02;2.60;92.10
9987;DHT22;5033;46.310;11.214;2023-02-01T03:51:33;2.50;92.10
9987;DHT22;5033;46.310;11.214;2023-02-01T03:54:03;2.50;92.10
9987;DHT22;5033;46.310;11.214;2023-02-01T03:56:33;2.50;92.10
9987;DHT22;5033;46.310;11.214;2023-02-01T03:59:02;2.50;92.20
9987;DHT22;5033;46.310;11.214;2023-02-01T04:01:30;2.50;92.20
9987;DHT22;5033;46.310;11.214;2023-02-01T04:03:58;2.50;92.50
9987;DHT22;5033;46.310;11.214;2023-02-01T04:06:25;2.50;92.30
9987;DHT22;5033;46.310;11.214;2023-02-01T04:08:54;2.40;92.30
9987;DHT22;5033;46.310;11.214;2023-02-01T04:11:21;2.40;92.40
9987;DHT22;5033;46.310;11.214;2023-02-01T04:13:48;2.40;92.50
9987;DHT22;5033;46.310;11.214;2023-02-01T04:16:15;2.40;92.60
9987;DHT22;5033;46.310;11.214;2023-02-01T04:18:42;2.40;92.60
9987;DHT22;5033;46.310;11.214;2023-02-01T04:21:09;2.30;92.90
9987;DHT22;5033;46.310;11.214;2023-02-01T04:23:36;2.40;92.80
9987;DHT22;5033;46.310;11.214;2023-02-01T04:26:04;2.30;93.10
9987;DHT22;5033;46.310;11.214;2023-02-01T04:28:32;2.30;93.20
9987;DHT22;5033;46.310;11.214;2023-02-01T04:30:59;2.30;93.10
9987;DHT22;5033;46.310;11.214;2023-02-01T04:33:26;2.30;93.00
9987;DHT22;5033;46.310;11.214;2023-02-01T04:35:53;2.30;93.10
9987;DHT22;5033;46.310;11.214;2023-02-01T04:38:20;2.30;93.10
9987;DHT22;5033;46.310;11.214;2023-02-01T04:40:48;2.20;93.50
9987;DHT22;5033;46.310;11.214;2023-02-01T04:43:17;2.10;93.30
9987;DHT22;5033;46.310;11.214;2023-02-01T04:45:47;2.10;93.30
9987;DHT22;5033;46.310;11.214;2023-02-01T04:48:15;2.10;93.50
9987;DHT22;5033;46.310;11.214;2023-02-01T04:50:43;2.00;93.70
9987;DHT22;5033;46.310;11.214;2023-02-01T04:53:13;2.00;93.70
9987;DHT22;5033;46.310;11.214;2023-02-01T04:55:40;1.90;93.90
9987;DHT22;5033;46.310;11.214;2023-02-01T04:58:07;1.90;93.90
9987;DHT22;5033;46.310;11.214;2023-02-01T05:00:36;1.90;93.70
9987;DHT22;5033;46.310;11.214;2023-02-01T05:03:03;2.00;93.90
9987;DHT22;5033;46.310;11.214;2023-02-01T05:05:30;1.90;94.00
9987;DHT22;5033;46.310;11.214;2023-02-01T05:07:57;1.90;94.10
9987;DHT22;5033;46.310;11.214;2023-02-01T05:10:24;2.00;94.30
9987;DHT22;5033;46.310;11.214;2023-02-01T05:12:51;2.00;94.50
9987;DHT22;5033;46.310;11.214;2023-02-01T05:15:37;2.00;94.40
9987;DHT22;5033;46.310;11.214;2023-02-01T05:18:04;2.00;94.50
9987;DHT22;5033;46.310;11.214;2023-02-01T05:20:33;2.00;94.50
9987;DHT22;5033;46.310;11.214;2023-02-01T05:23:00;2.00;94.60
9987;DHT22;5033;46.310;11.214;2023-02-01T05:25:27;2.00;94.70
9987;DHT22;5033;46.310;11.214;2023-02-01T05:27:54;2.00;94.80
9987;DHT22;5033;46.310;11.214;2023-02-01T05:30:21;2.00;95.00
9987;DHT22;5033;46.310;11.214;2023-02-01T05:32:51;2.10;95.00
9987;DHT22;5033;46.310;11.214;2023-02-01T05:35:19;2.10;95.10
9987;DHT22;5033;46.310;11.214;2023-02-01T05:37:46;2.10;95.20
9987;DHT22;5033;46.310;11.214;2023-02-01T05:40:13;2.10;94.90
9987;DHT22;5033;46.310;11.214;2023-02-01T05:42:40;2.10;94.80
9987;DHT22;5033;46.310;11.214;2023-02-01T05:45:08;2.10;94.80
9987;DHT22;5033;46.310;11.214;2023-02-01T05:47:35;2.10;95.00
9987;DHT22;5033;46.310;11.214;2023-02-01T05:50:06;2.00;95.20
9987;DHT22;5033;46.310;11.214;2023-02-01T05:52:33;1.90;95.30
9987;DHT22;5033;46.310;11.214;2023-02-01T05:55:00;1.90;95.40
9987;DHT22;5033;46.310;11.214;2023-02-01T05:57:27;1.90;95.50
9987;DHT22;5033;46.310;11.214;2023-02-01T05:59:55;1.90;95.70
9987;DHT22;5033;46.310;11.214;2023-02-01T06:02:22;1.80;95.30
9987;DHT22;5033;46.310;11.214;2023-02-01T06:04:49;1.80;95.40
9987;DHT22;5033;46.310;11.214;2023-02-01T06:07:18;1.70;95.60
9987;DHT22;5033;46.310;11.214;2023-02-01T06:09:45;1.70;96.00
9987;DHT22;5033;46.310;11.214;2023-02-01T06:12:12;1.60;96.10
9987;DHT22;5033;46.310;11.214;2023-02-01T06:14:39;1.60;96.10
9987;DHT22;5033;46.310;11.214;2023-02-01T06:17:06;1.60;96.20
9987;DHT22;5033;46.310;11.214;2023-02-01T06:19:33;1.60;96.30
9987;DHT22;5033;46.310;11.214;2023-02-01T06:22:01;1.60;96.50
9987;DHT22;5033;46.310;11.214;2023-02-01T06:24:33;1.60;96.60
9987;DHT22;5033;46.310;11.214;2023-02-01T06:27:00;1.60;96.60
9987;DHT22;5033;46.310;11.214;2023-02-01T06:29:27;1.60;96.50
9987;DHT22;5033;46.310;11.214;2023-02-01T06:31:54;1.70;96.60
9987;DHT22;5033;46.310;11.214;2023-02-01T06:34:21;1.60;96.50
9987;DHT22;5033;46.310;11.214;2023-02-01T06:36:49;1.70;96.60
9987;DHT22;5033;46.310;11.214;2023-02-01T06:39:16;1.70;96.70
9987;DHT22;5033;46.310;11.214;2023-02-01T06:41:47;1.60;96.60
9987;DHT22;5033;46.310;11.214;2023-02-01T06:44:14;1.60;96.90
9987;DHT22;5033;46.310;11.214;2023-02-01T06:46:41;1.60;97.10
9987;DHT22;5033;46.310;11.214;2023-02-01T06:49:08;1.60;97.10
9987;DHT22;5033;46.310;11.214;2023-02-01T06:51:35;1.60;97.10
9987;DHT22;5033;46.310;11.214;2023-02-01T06:54:02;1.60;97.00
9987;DHT22;5033;46.310;11.214;2023-02-01T06:56:29;1.60;97.10
9987;DHT22;5033;46.310;11.214;2023-02-01T06:58:59;1.60;97.20
9987;DHT22;5033;46.310;11.214;2023-02-01T07:01:27;1.50;97.20
9987;DHT22;5033;46.310;11.214;2023-02-01T07:03:54;1.60;97.20
9987;DHT22;5033;46.310;11.214;2023-02-01T07:06:21;1.60;97.30
9987;DHT22;5033;46.310;11.214;2023-02-01T07:08:48;1.60;97.10
9987;DHT22;5033;46.310;11.214;2023-02-01T07:11:16;1.60;97.10
9987;DHT22;5033;46.310;11.214;2023-02-01T07:13:45;1.70;97.40
9987;DHT22;5033;46.310;11.214;2023-02-01T07:16:16;1.70;97.90
9987;DHT22;5033;46.310;11.214;2023-02-01T07:18:44;1.70;98.10
9987;DHT22;5033;46.310;11.214;2023-02-01T07:21:12;1.70;98.10
9987;DHT22;5033;46.310;11.214;2023-02-01T07:23:40;1.70;97.80
9987;DHT22;5033;46.310;11.214;2023-02-01T07:26:10;1.80;97.70
9987;DHT22;5033;46.310;11.214;2023-02-01T07:28:38;1.80;97.50
9987;DHT22;5033;46.310;11.214;2023-02-01T07:31:05;1.80;97.60
9987;DHT22;5033;46.310;11.214;2023-02-01T07:33:34;1.90;97.60
9987;DHT22;5033;46.310;11.214;2023-02-01T07:36:03;1.90;98.30
9987;DHT22;5033;46.310;11.214;2023-02-01T07:38:31;1.90;98.10
9987;DHT22;5033;46.310;11.214;2023-02-01T07:40:59;1.90;97.80
9987;DHT22;5033;46.310;11.214;2023-02-01T07:43:27;1.90;97.60
9987;DHT22;5033;46.310;11.214;2023-02-01T07:45:55;2.00;97.70
9987;DHT22;5033;46.310;11.214;2023-02-01T07:48:23;2.00;97.80
9987;DHT22;5033;46.310;11.214;2023-02-01T07:50:58;2.00;98.10
9987;DHT22;5033;46.310;11.214;2023-02-01T07:53:25;2.30;98.30
9987;DHT22;5033;46.310;11.214;2023-02-01T07:55:52;3.10;98.10
9987;DHT22;5033;46.310;11.214;2023-02-01T07:58:21;3.80;97.10
9987;DHT22;5033;46.310;11.214;2023-02-01T08:00:48;4.50;97.20
9987;DHT22;5033;46.310;11.214;2023-02-01T08:03:33;5.40;97.20
9987;DHT22;5033;46.310;11.214;2023-02-01T08:06:02;6.40;99.00
9987;DHT22;5033;46.310;11.214;2023-02-01T08:08:30;7.20;95.10
9987;DHT22;5033;46.310;11.214;2023-02-01T08:10:57;7.80;93.80
9987;DHT22;5033;46.310;11.214;2023-02-01T08:13:25;8.50;93.00
9987;DHT22;5033;46.310;11.214;2023-02-01T08:15:52;9.00;92.10
9987;DHT22;5033;46.310;11.214;2023-02-01T08:18:23;9.60;91.40
9987;DHT22;5033;46.310;11.214;2023-02-01T08:20:51;10.00;90.70
9987;DHT22;5033;46.310;11.214;2023-02-01T08:23:19;10.10;89.50
9987;DHT22;5033;46.310;11.214;2023-02-01T08:25:47;10.20;89.70
9987;DHT22;5033;46.310;11.214;2023-02-01T08:28:14;10.50;89.10
9987;DHT22;5033;46.310;11.214;2023-02-01T08:30:41;10.70;88.10
9987;DHT22;5033;46.310;11.214;2023-02-01T08:33:09;10.90;86.70
9987;DHT22;5033;46.310;11.214;2023-02-01T08:35:38;11.20;87.00
9987;DHT22;5033;46.310;11.214;2023-02-01T08:38:05;11.50;86.70
9987;DHT22;5033;46.310;11.214;2023-02-01T08:40:34;11.60;86.80
9987;DHT22;5033;46.310;11.214;2023-02-01T08:43:01;11.80;86.50
9987;DHT22;5033;46.310;11.214;2023-02-01T08:45:29;12.20;87.10
9987;DHT22;5033;46.310;11.214;2023-02-01T08:47:56;12.50;85.10
9987;DHT22;5033;46.310;11.214;2023-02-01T08:50:24;12.60;84.80
9987;DHT22;5033;46.310;11.214;2023-02-01T08:52:52;12.80;85.00
9987;DHT22;5033;46.310;11.214;2023-02-01T08:55:20;13.00;83.70
9987;DHT22;5033;46.310;11.214;2023-02-01T08:57:48;13.20;83.40
9987;DHT22;5033;46.310;11.214;2023-02-01T09:00:16;13.30;82.10
9987;DHT22;5033;46.310;11.214;2023-02-01T09:02:45;13.50;80.30
9987;DHT22;5033;46.310;11.214;2023-02-01T09:05:12;13.60;81.00
9987;DHT22;5033;46.310;11.214;2023-02-01T09:07:42;13.80;81.00
9987;DHT22;5033;46.310;11.214;2023-02-01T09:10:10;13.70;81.80
9987;DHT22;5033;46.310;11.214;2023-02-01T09:12:37;13.50;80.70
9987;DHT22;5033;46.310;11.214;2023-02-01T09:15:08;13.20;80.40
9987;DHT22;5033;46.310;11.214;2023-02-01T09:17:35;12.90;81.00
9987;DHT22;5033;46.310;11.214;2023-02-01T09:20:03;12.70;82.30
9987;DHT22;5033;46.310;11.214;2023-02-01T09:22:30;12.10;82.00
9987;DHT22;5033;46.310;11.214;2023-02-01T09:24:57;11.60;82.50
9987;DHT22;5033;46.310;11.214;2023-02-01T09:27:24;11.70;83.30
9987;DHT22;5033;46.310;11.214;2023-02-01T09:29:51;12.10;83.20
9987;DHT22;5033;46.310;11.214;2023-02-01T09:32:21;12.80;83.00
9987;DHT22;5033;46.310;11.214;2023-02-01T09:34:48;13.40;81.50
9987;DHT22;5033;46.310;11.214;2023-02-01T09:37:16;14.10;79.00
9987;DHT22;5033;46.310;11.214;2023-02-01T09:39:43;15.30;75.00
9987;DHT22;5033;46.310;11.214;2023-02-01T09:42:21;17.00;70.40
9987;DHT22;5033;46.310;11.214;2023-02-01T09:45:03;18.20;64.00
9987;DHT22;5033;46.310;11.214;2023-02-01T09:47:35;18.70;62.40
9987;DHT22;5033;46.310;11.214;2023-02-01T09:50:12;18.30;61.80
9987;DHT22;5033;46.310;11.214;2023-02-01T09:52:45;17.20;63.60
9987;DHT22;5033;46.310;11.214;2023-02-01T09:55:18;16.10;67.10
9987;DHT22;5033;46.310;11.214;2023-02-01T09:57:50;15.20;70.50
9987;DHT22;5033;46.310;11.214;2023-02-01T10:00:23;14.80;73.00
9987;DHT22;5033;46.310;11.214;2023-02-01T10:02:54;14.40;73.30
9987;DHT22;5033;46.310;11.214;2023-02-01T10:05:39;13.50;76.40
9987;DHT22;5033;46.310;11.214;2023-02-01T10:08:24;12.90;77.90
9987;DHT22;5033;46.310;11.214;2023-02-01T10:10:58;13.10;79.60
9987;DHT22;5033;46.310;11.214;2023-02-01T10:13:44;13.60;79.70
9987;DHT22;5033;46.310;11.214;2023-02-01T10:16:23;13.60;75.50
9987;DHT22;5033;46.310;11.214;2023-02-01T10:19:14;13.50;75.50
9987;DHT22;5033;46.310;11.214;2023-02-01T10:21:52;13.40;75.90
9987;DHT22;5033;46.310;11.214;2023-02-01T10:24:41;13.20;77.70
9987;DHT22;5033;46.310;11.214;2023-02-01T10:27:13;13.30;82.10
9987;DHT22;5033;46.310;11.214;2023-02-01T10:29:42;13.50;81.70
9987;DHT22;5033;46.310;11.214;2023-02-01T10:32:14;13.50;78.00
9987;DHT22;5033;46.310;11.214;2023-02-01T10:34:45;14.20;80.30
9987;DHT22;5033;46.310;11.214;2023-02-01T10:37:26;14.40;77.00
9987;DHT22;5033;46.310;11.214;2023-02-01T10:39:56;13.70;75.30
9987;DHT22;5033;46.310;11.214;2023-02-01T10:42:26;12.80;76.00
9987;DHT22;5033;46.310;11.214;2023-02-01T10:44:56;12.20;79.00
9987;DHT22;5033;46.310;11.214;2023-02-01T10:47:24;12.40;81.50
9987;DHT22;5033;46.310;11.214;2023-02-01T10:49:57;13.20;81.30
9987;DHT22;5033;46.310;11.214;2023-02-01T10:52:33;13.90;81.10
9987;DHT22;5033;46.310;11.214;2023-02-01T10:55:36;14.80;79.30
9987;DHT22;5033;46.310;11.214;2023-02-01T10:58:05;15.30;77.30
9987;DHT22;5033;46.310;11.214;2023-02-01T11:00:44;15.00;75.00
9987;DHT22;5033;46.310;11.214;2023-02-01T11:03:39;14.40;75.50
9987;DHT22;5033;46.310;11.214;2023-02-01T11:06:18;14.10;76.60
9987;DHT22;5033;46.310;11.214;2023-02-01T11:08:48;13.90;77.70
9987;DHT22;5033;46.310;11.214;2023-02-01T11:11:15;14.20;78.90
9987;DHT22;5033;46.310;11.214;2023-02-01T11:13:42;14.70;77.20
9987;DHT22;5033;46.310;11.214;2023-02-01T11:16:12;14.50;76.90
9987;DHT22;5033;46.310;11.214;2023-02-01T11:18:41;14.40;77.00
9987;DHT22;5033;46.310;11.214;2023-02-01T11:21:10;14.50;78.30
9987;DHT22;5033;46.310;11.214;2023-02-01T11:23:43;14.60;77.20
9987;DHT22;5033;46.310;11.214;2023-02-01T11:26:13;14.80;78.30
9987;DHT22;5033;46.310;11.214;2023-02-01T11:28:50;15.10;78.30
9987;DHT22;5033;46.310;11.214;2023-02-01T11:31:18;14.90;77.90
9987;DHT22;5033;46.310;11.214;2023-02-01T11:33:50;14.90;78.30
9987;DHT22;5033;46.310;11.214;2023-02-01T11:36:22;14.80;78.00
9987;DHT22;5033;46.310;11.214;2023-02-01T11:38:54;14.90;77.40
9987;DHT22;5033;46.310;11.214;2023-02-01T11:41:33;14.70;77.40
9987;DHT22;5033;46.310;11.214;2023-02-01T11:44:05;14.40;76.30
9987;DHT22;5033;46.310;11.214;2023-02-01T11:46:42;14.60;78.70
9987;DHT22;5033;46.310;11.214;2023-02-01T11:49:20;14.90;77.70
9987;DHT22;5033;46.310;11.214;2023-02-01T11:51:56;14.80;75.00
9987;DHT22;5033;46.310;11.214;2023-02-01T11:54:37;14.80;77.30
9987;DHT22;5033;46.310;11.214;2023-02-01T11:57:23;15.00;76.40
9987;DHT22;5033;46.310;11.214;2023-02-01T12:00:04;14.60;76.40
9987;DHT22;5033;46.310;11.214;2023-02-01T12:02:46;14.50;77.70
9987;DHT22;5033;46.310;11.214;2023-02-01T12:05:27;14.70;76.60
9987;DHT22;5033;46.310;11.214;2023-02-01T12:08:18;14.90;77.40
9987;DHT22;5033;46.310;11.214;2023-02-01T12:11:01;14.70;76.60
9987;DHT22;5033;46.310;11.214;2023-02-01T12:13:42;14.70;76.80
9987;DHT22;5033;46.310;11.214;2023-02-01T12:16:19;14.70;77.00
9987;DHT22;5033;46.310;11.214;2023-02-01T12:22:00;15.30;76.50
9987;DHT22;5033;46.310;11.214;2023-02-01T12:24:47;15.30;75.00
9987;DHT22;5033;46.310;11.214;2023-02-01T12:27:32;15.10;75.40
9987;DHT22;5033;46.310;11.214;2023-02-01T12:30:22;14.80;74.30
9987;DHT22;5033;46.310;11.214;2023-02-01T12:33:00;14.50;74.60
9987;DHT22;5033;46.310;11.214;2023-02-01T12:35:49;14.40;76.60
9987;DHT22;5033;46.310;11.214;2023-02-01T12:38:35;14.40;74.70
9987;DHT22;5033;46.310;11.214;2023-02-01T12:43:57;13.90;76.70
9987;DHT22;5033;46.310;11.214;2023-02-01T12:46:29;14.00;76.60
9987;DHT22;5033;46.310;11.214;2023-02-01T12:49:00;13.80;76.40
9987;DHT22;5033;46.310;11.214;2023-02-01T12:51:31;13.60;76.50
9987;DHT22;5033;46.310;11.214;2023-02-01T12:54:02;13.60;76.60
9987;DHT22;5033;46.310;11.214;2023-02-01T12:56:35;13.60;76.80
9987;DHT22;5033;46.310;11.214;2023-02-01T12:59:11;13.40;76.70
9987;DHT22;5033;46.310;11.214;2023-02-01T13:01:42;13.30;76.50
9987;DHT22;5033;46.310;11.214;2023-02-01T13:04:15;13.40;77.30
9987;DHT22;5033;46.310;11.214;2023-02-01T13:06:47;13.80;78.80
9987;DHT22;5033;46.310;11.214;2023-02-01T13:09:23;14.10;77.40
9987;DHT22;5033;46.310;11.214;2023-02-01T13:11:55;14.40;77.40
9987;DHT22;5033;46.310;11.214;2023-02-01T13:14:35;14.50;77.70
9987;DHT22;5033;46.310;11.214;2023-02-01T13:17:05;14.30;76.00
9987;DHT22;5033;46.310;11.214;2023-02-01T13:19:42;13.90;76.30
9987;DHT22;5033;46.310;11.214;2023-02-01T13:22:15;13.80;77.90
9987;DHT22;5033;46.310;11.214;2023-02-01T13:24:47;13.90;78.80
9987;DHT22;5033;46.310;11.214;2023-02-01T13:27:16;14.20;79.40
9987;DHT22;5033;46.310;11.214;2023-02-01T13:29:52;14.50;77.40
9987;DHT22;5033;46.310;11.214;2023-02-01T13:35:55;14.10;76.10
9987;DHT22;5033;46.310;11.214;2023-02-01T13:38:46;13.50;75.50
9987;DHT22;5033;46.310;11.214;2023-02-01T13:41:25;13.40;77.90
9987;DHT22;5033;46.310;11.214;2023-02-01T13:43:55;13.80;78.50
9987;DHT22;5033;46.310;11.214;2023-02-01T13:46:28;14.00;76.80
9987;DHT22;5033;46.310;11.214;2023-02-01T13:48:58;13.90;75.90
9987;DHT22;5033;46.310;11.214;2023-02-01T13:51:36;13.80;76.40
9987;DHT22;5033;46.310;11.214;2023-02-01T13:54:04;13.80;76.10
9987;DHT22;5033;46.310;11.214;2023-02-01T13:56:40;13.70;77.40
9987;DHT22;5033;46.310;11.214;2023-02-01T14:02:50;13.60;76.20
9987;DHT22;5033;46.310;11.214;2023-02-01T14:08:46;13.10;76.90
9987;DHT22;5033;46.310;11.214;2023-02-01T14:11:34;12.90;77.80
9987;DHT22;5033;46.310;11.214;2023-02-01T14:17:35;12.60;76.60
9987;DHT22;5033;46.310;11.214;2023-02-01T14:20:38;12.30;77.20
9987;DHT22;5033;46.310;11.214;2023-02-01T14:23:12;12.40;79.10
9987;DHT22;5033;46.310;11.214;2023-02-01T14:25:41;13.00;80.00
9987;DHT22;5033;46.310;11.214;2023-02-01T14:28:19;13.40;79.40
9987;DHT22;5033;46.310;11.214;2023-02-01T14:30:48;13.70;77.60
9987;DHT22;5033;46.310;11.214;2023-02-01T14:33:21;13.20;74.30
9987;DHT22;5033;46.310;11.214;2023-02-01T14:36:06;12.30;73.20
9987;DHT22;5033;46.310;11.214;2023-02-01T14:38:36;11.80;76.50
9987;DHT22;5033;46.310;11.214;2023-02-01T14:41:31;11.90;77.40
9987;DHT22;5033;46.310;11.214;2023-02-01T14:44:30;11.80;75.30
9987;DHT22;5033;46.310;11.214;2023-02-01T14:50:22;11.10;78.00
9987;DHT22;5033;46.310;11.214;2023-02-01T14:53:18;11.00;77.90
9987;DHT22;5033;46.310;11.214;2023-02-01T14:55:50;10.80;78.30
9987;DHT22;5033;46.310;11.214;2023-02-01T14:58:31;10.80;79.70
9987;DHT22;5033;46.310;11.214;2023-02-01T15:01:02;10.80;80.10
9987;DHT22;5033;46.310;11.214;2023-02-01T15:03:38;10.80;80.10
9987;DHT22;5033;46.310;11.214;2023-02-01T15:06:25;10.60;79.40
9987;DHT22;5033;46.310;11.214;2023-02-01T15:08:58;10.40;79.20
9987;DHT22;5033;46.310;11.214;2023-02-01T15:11:26;10.30;80.60
9987;DHT22;5033;46.310;11.214;2023-02-01T15:13:54;10.20;81.20
9987;DHT22;5033;46.310;11.214;2023-02-01T15:16:23;10.20;80.30
9987;DHT22;5033;46.310;11.214;2023-02-01T15:19:07;10.10;81.00
9987;DHT22;5033;46.310;11.214;2023-02-01T15:21:43;10.10;81.90
9987;DHT22;5033;46.310;11.214;2023-02-01T15:24:14;10.00;81.70
9987;DHT22;5033;46.310;11.214;2023-02-01T15:26:41;10.00;80.60
9987;DHT22;5033;46.310;11.214;2023-02-01T15:29:13;9.90;80.70
9987;DHT22;5033;46.310;11.214;2023-02-01T15:31:42;9.80;81.20
9987;DHT22;5033;46.310;11.214;2023-02-01T15:34:10;9.80;82.00
9987;DHT22;5033;46.310;11.214;2023-02-01T15:36:37;9.70;82.50
9987;DHT22;5033;46.310;11.214;2023-02-01T15:39:15;9.60;81.30
9987;DHT22;5033;46.310;11.214;2023-02-01T15:41:46;9.60;81.90
9987;DHT22;5033;46.310;11.214;2023-02-01T15:44:19;9.50;82.80
9987;DHT22;5033;46.310;11.214;2023-02-01T15:46:48;9.40;83.90
9987;DHT22;5033;46.310;11.214;2023-02-01T15:49:19;9.40;83.40
9987;DHT22;5033;46.310;11.214;2023-02-01T15:51:47;9.40;83.20
9987;DHT22;5033;46.310;11.214;2023-02-01T15:54:19;9.40;83.00
9987;DHT22;5033;46.310;11.214;2023-02-01T15:56:50;9.30;82.80
9987;DHT22;5033;46.310;11.214;2023-02-01T15:59:21;9.30;83.10
9987;DHT22;5033;46.310;11.214;2023-02-01T16:01:50;9.20;83.00
9987;DHT22;5033;46.310;11.214;2023-02-01T16:04:20;9.20;82.20
9987;DHT22;5033;46.310;11.214;2023-02-01T16:06:49;9.10;82.10
9987;DHT22;5033;46.310;11.214;2023-02-01T16:09:20;9.10;82.70
9987;DHT22;5033;46.310;11.214;2023-02-01T16:11:52;9.00;83.50
9987;DHT22;5033;46.310;11.214;2023-02-01T16:14:20;8.90;83.80
9987;DHT22;5033;46.310;11.214;2023-02-01T16:16:47;8.80;83.30
9987;DHT22;5033;46.310;11.214;2023-02-01T16:19:14;8.80;83.70
9987;DHT22;5033;46.310;11.214;2023-02-01T16:21:41;8.80;82.40
9987;DHT22;5033;46.310;11.214;2023-02-01T16:24:08;8.60;83.10
9987;DHT22;5033;46.310;11.214;2023-02-01T16:26:37;8.50;83.80
9987;DHT22;5033;46.310;11.214;2023-02-01T16:29:05;8.40;83.60
9987;DHT22;5033;46.310;11.214;2023-02-01T16:31:35;8.30;83.20
9987;DHT22;5033;46.310;11.214;2023-02-01T16:34:03;8.30;84.40
9987;DHT22;5033;46.310;11.214;2023-02-01T16:36:31;8.30;85.80
9987;DHT22;5033;46.310;11.214;2023-02-01T16:38:58;8.20;85.60
9987;DHT22;5033;46.310;11.214;2023-02-01T16:41:26;8.10;85.70
9987;DHT22;5033;46.310;11.214;2023-02-01T16:43:55;8.00;85.50
9987;DHT22;5033;46.310;11.214;2023-02-01T16:46:24;7.90;86.70
9987;DHT22;5033;46.310;11.214;2023-02-01T16:48:54;8.00;88.60
9987;DHT22;5033;46.310;11.214;2023-02-01T16:51:23;8.10;87.50